• Join FlightAware (Why Join?)
  • Login
  • US Flag 
11:06PM EDT


 

Airport Tracker/Info


-or-


 

Live Flight TrackerFlight Track Log ✈ UAL1491 ✈ 23-May-2012 ✈ KPHX - KIAH

Flight Track Log - Related Links

Times and Time Zones

All times are in EDT time to prevent confusion due to time zone crossing. See the UAL1491 flight status page for this flight to view local times or setup timezone preferences in your user account.

Time Position Orientation Groundspeed Altitude Reporting Facility
EDT Latitude Longitude Course Direction KTS MPH feet Rate Location/Type
08:09AM 33.4098 -111.9457 307° West  Level FlightAware Approximate
08:09AM 33.4333 -111.9833 102° East 179 206 2,100  Level Phoenix TRACON
08:14AM 33.3608 -111.5797 109° East 314 361 10,800 1,980 Climbing Albuquerque Center
08:15AM 33.3236 -111.4536 109° East 364 419 12,900 2,100 Climbing Albuquerque Center
08:16AM 33.2864 -111.3225 110° East 393 452 15,000 2,040 Climbing Albuquerque Center
08:17AM 33.2447 -111.1867 108° East 418 481 17,000 2,160 Climbing Albuquerque Center
08:18AM 33.2056 -111.0408 107° East 440 506 19,400 1,980 Climbing Albuquerque Center
08:19AM 33.1719 -110.9131 109° East 445 512 21,000 1,620 Climbing Albuquerque Center
08:20AM 33.1303 -110.7650 108° East 456 525 22,700 1,620 Climbing Albuquerque Center
08:21AM 33.0886 -110.6122 109° East 469 540 24,300 1,680 Climbing Albuquerque Center
08:22AM 33.0447 -110.4569 108° East 480 552 26,100 1,500 Climbing Albuquerque Center
08:23AM 33.0028 -110.3044 107° East 480 552 27,400 1,200 Climbing Albuquerque Center
08:24AM 32.9606 -110.1444 109° East 491 565 28,600 1,500 Climbing Albuquerque Center
08:25AM 32.9161 -109.9872 109° East 491 565 30,400 1,860 Climbing Albuquerque Center
08:26AM 32.8678 -109.8203 109° East 491 565 32,400 1,500 Climbing Albuquerque Center
08:27AM 32.8247 -109.6683 109° East 486 559 33,500 1,020 Climbing Albuquerque Center
08:28AM 32.7797 -109.5139 108° East 486 559 34,500 1,020 Climbing Albuquerque Center
08:29AM 32.7386 -109.3600 110° East 491 565 35,600 1,080 Climbing Albuquerque Center
08:30AM 32.6931 -109.2086 109° East 491 565 36,700 660 Climbing Albuquerque Center
08:31AM 32.6494 -109.0547 109° East 491 565 37,000 120 Climbing Albuquerque Center
08:32AM 32.6056 -108.9036 108° East 491 565 37,000  Level Albuquerque Center
08:33AM 32.5697 -108.7700 109° East 491 565 37,000  Level Albuquerque Center
08:34AM 32.5256 -108.6189 109° East 486 559 37,000  Level Albuquerque Center
08:35AM 32.4811 -108.4683 110° East 486 559 37,000  Level Albuquerque Center
08:36AM 32.4344 -108.3178 110° East 486 559 37,000  Level Albuquerque Center
08:37AM 32.3894 -108.1722 109° East 486 559 37,000 -60 Level Albuquerque Center
08:38AM 32.3447 -108.0194 108° East 486 559 36,900  Descending Albuquerque Center
08:39AM 32.3017 -107.8669 110° East 486 559 37,000  Climbing Albuquerque Center
08:40AM 32.2561 -107.7194 110° East 486 559 36,900 -60 Descending Albuquerque Center
08:41AM 32.2106 -107.5694 109° East 486 559 36,900  Level Albuquerque Center
08:42AM 32.1608 -107.4028 109° East 486 559 37,000  Climbing Albuquerque Center
08:43AM 32.1169 -107.2508 110° East 486 559 37,000  Level Albuquerque Center
08:44AM 32.0708 -107.1014 110° East 486 559 37,000  Level Albuquerque Center
08:45AM 32.0225 -106.9475 109° East 486 559 37,000 -60 Level Albuquerque Center
08:46AM 31.9781 -106.7986 110° East 486 559 36,900  Descending Albuquerque Center
08:47AM 31.9314 -106.6497 110° East 486 559 37,000  Climbing Albuquerque Center
08:48AM 31.8889 -106.5156 110° East 486 559 36,900 -60 Descending Albuquerque Center
08:49AM 31.8439 -106.3669 109° East 481 554 36,900  Level Albuquerque Center
08:50AM 31.8008 -106.2186 106° East 481 554 36,900  Level Albuquerque Center
08:51AM 31.7639 -106.0653 107° East 481 554 37,000  Climbing Albuquerque Center
08:52AM 31.7247 -105.9147 106° East 481 554 37,000  Level Albuquerque Center
08:53AM 31.6872 -105.7617 106° East 481 554 37,000  Level Albuquerque Center
08:54AM 31.6497 -105.6114 105° East 481 554 37,000 -60 Level Albuquerque Center
08:55AM 31.6142 -105.4611 107° East 481 554 36,900 -60 Descending Albuquerque Center
08:56AM 31.5742 -105.3108 107° East 481 554 36,900  Level Albuquerque Center
08:57AM 31.5361 -105.1608 106° East 481 554 36,900  Level Albuquerque Center
08:58AM 31.4978 -105.0061 107° East 481 554 37,000  Climbing Albuquerque Center
08:59AM 31.4547 -104.8419 108° East 481 554 37,000  Level Albuquerque Center
09:00AM 31.4139 -104.6925 107° East 481 554 37,000 -60 Level Albuquerque Center
09:01AM 31.3753 -104.5453 107° East 476 548 36,900  Descending Albuquerque Center
09:02AM 31.3361 -104.3961 107° East 476 548 37,000  Climbing Albuquerque Center
09:03AM 31.2969 -104.2469 107° East 476 548 37,000  Level Albuquerque Center
09:04AM 31.2578 -104.1003 108° East 476 548 37,000 -60 Level Albuquerque Center
09:05AM 31.2183 -103.9561 107° East 476 548 36,900  Descending Albuquerque Center
09:06AM 31.1806 -103.8075 109° East 476 548 37,000  Climbing Albuquerque Center
09:07AM 31.1389 -103.6661 108° East 476 548 37,000 -60 Level Albuquerque Center
09:08AM 31.0967 -103.5178 107° East 471 542 36,900  Descending Albuquerque Center
09:09AM 31.0631 -103.3861 108° East 471 542 37,000  Climbing Albuquerque Center
09:10AM 31.0231 -103.2428 108° East 476 548 36,900  Descending Albuquerque Center
09:11AM 30.9825 -103.0969 108° East 471 542 37,000  Climbing Albuquerque Center
09:12AM 30.9417 -102.9514 106° East 476 548 37,000  Level Albuquerque Center
09:13AM 30.9050 -102.8036 107° East 476 548 37,000  Level Albuquerque Center
09:14AM 30.8594 -102.6308 107° East 474 545 37,000  Level Houston Center
09:15AM 30.8214 -102.4844 107° East 474 545 37,000  Level Houston Center
09:16AM 30.7831 -102.3381 107° East 474 545 37,000 -60 Level Houston Center
09:17AM 30.7444 -102.1942 106° East 474 545 36,900 -60 Descending Houston Center
09:18AM 30.7078 -102.0481 108° East 474 545 36,900  Level Houston Center
09:19AM 30.6672 -101.8994 107° East 479 551 37,000  Climbing Houston Center
09:20AM 30.6283 -101.7533 107° East 479 551 36,900  Descending Houston Center
09:21AM 30.5892 -101.6075 106° East 473 544 37,000  Climbing Houston Center
09:22AM 30.5539 -101.4619 106° East 473 544 37,000  Level Houston Center
09:23AM 30.5167 -101.3139 109° East 473 544 37,000 -60 Level Houston Center
09:24AM 30.4731 -101.1681 107° East 473 544 36,900  Descending Houston Center
09:25AM 30.4353 -101.0225 108° East 473 544 37,000  Climbing Houston Center
09:26AM 30.3919 -100.8647 108° East 473 544 37,000 -60 Level Houston Center
09:27AM 30.3550 -100.7342 109° East 472 543 36,900 -60 Descending Houston Center
09:28AM 30.3125 -100.5886 109° East 472 543 36,900  Level Houston Center
09:29AM 30.2697 -100.4481 109° East 477 549 37,000  Climbing Houston Center
09:30AM 30.2269 -100.3028 107° East 472 543 37,000  Level Houston Center
09:31AM 30.1881 -100.1603 109° East 472 543 37,000  Level Houston Center
09:32AM 30.1467 -100.0178 103° East 472 543 37,000  Level Houston Center
09:33AM 30.1150 -99.8569 109° East 489 563 37,000  Level Houston Center
09:34AM 30.0714 -99.7144 110° East 483 556 37,000 -60 Level Houston Center
09:35AM 30.0239 -99.5647 109° East 469 540 36,900 -60 Descending Houston Center
09:36AM 29.9822 -99.4225 108° East 469 540 36,900  Level Houston Center
09:37AM 29.9422 -99.2783 111° Southeast 464 534 37,000  Climbing Houston Center
09:38AM 29.8958 -99.1408 113° Southeast 464 534 36,900  Descending Houston Center
09:39AM 29.8503 -99.0178 113° Southeast 458 527 37,000  Climbing Houston Center
09:40AM 29.7919 -98.8631 113° Southeast 474 545 37,000  Level Houston Center
09:41AM 29.7464 -98.7403 113° Southeast 469 540 37,000  Level Houston Center
09:42AM 29.6917 -98.5886 109° East 469 540 37,000  Level Houston Center
09:43AM 29.6469 -98.4400 89° East 474 545 37,000  Level Houston Center
09:44AM 29.6483 -98.2847 90° East 474 545 37,000  Level Houston Center
09:45AM 29.6472 -98.1367 93° East 474 545 37,000  Level Houston Center
09:46AM 29.6397 -97.9833 92° East 469 540 37,000  Level Houston Center
09:47AM 29.6344 -97.8278 93° East 485 558 37,000 -60 Level Houston Center
09:48AM 29.6267 -97.6747 94° East 485 558 36,900 -60 Descending Houston Center
09:49AM 29.6186 -97.5261 94° East 480 552 36,900 -1,140 Level Houston Center
09:50AM 29.6103 -97.3775 93° East 475 547 34,700 -2,820 Descending Houston Center
09:51AM 29.6042 -97.2219 94° East 470 541 31,300 -3,420 Descending Houston Center
09:52AM 29.5958 -97.0689 93° East 475 547 27,900 -3,060 Descending Houston Center
09:53AM 29.5892 -96.9206 94° East 475 547 25,200 -2,700 Descending Houston Center
09:54AM 29.5800 -96.7767 93° East 470 541 22,500 -2,400 Descending Houston Center
09:55AM 29.5742 -96.6500 96° East 460 529 20,400 -2,580 Descending Houston Center
09:56AM 29.5622 -96.5206 92° East 421 484 17,700 -2,580 Descending Houston Center
09:57AM 29.5586 -96.3867 94° East 417 480 15,300 -2,160 Descending Houston Center
09:58AM 29.5503 -96.2622 87° East 401 461 13,200 -1,740 Descending Houston Center
09:59AM 29.5564 -96.1406 59° Northeast 389 448 11,900 -1,200 Descending Houston Center
10:00AM 29.6100 -96.0378 60° Northeast 362 417 10,800 -1,020 Descending Houston Center
10:01AM 29.6656 -95.9256 59° Northeast 362 417 9,900 -600 Descending Houston Center
10:02AM 29.7122 -95.8367 59° Northeast 346 398 9,700 -720 Descending Houston Center
10:03AM 29.7544 -95.7544 61° Northeast 315 362 8,500 -1,200 Descending Houston Center
10:04AM 29.7944 -95.6700 58° Northeast 300 345 7,400 -1,080 Descending Houston Center
10:05AM 29.8364 -95.5928 61° Northeast 289 333 6,400 -720 Descending Houston Center
10:06AM 29.8764 -95.5103 75° East 289 333 6,000 -240 Descending Houston Center
10:07AM 29.8953 -95.4272 88° East 283 326 6,000  Level Houston Center
10:08AM 29.8975 -95.3483 90° East 268 308 6,000 -300 Level Houston Center
10:09AM 29.8978 -95.2644 90° East 262 302 5,400 -600 Descending Houston Center